Terminal Aerodrome Forecast
Issued by NWS

Home | Current Version | Previous Version | Text Only | Print | Product List | Glossary Off
Versions: 1 2 3 4 5 6 7 8 9 10 11 12 13 14 15 16 17 18 19 20 21 22 23 24 25 26 27 28 29 30 31 32 33

000
FTUS43 KLOT 181100
TAFMDW
TAF
KMDW 181120Z 1812/1912 02007KT P6SM SCT007 SCT020
     FM181230 02008KT 6SM BR SCT003 BKN007
     FM181400 04007KT P6SM SCT007 BKN012
     FM181800 06010KT P6SM FEW025 SCT250
     FM190100 07005KT P6SM SCT250
     FM190900 15006KT P6SM SKC=

USA.gov is the U.S. government's official web portal to all federal, state and local government web resources and services.